createdAt,value
2019-04-06T00:00:40.599Z,44.00
2019-04-06T00:03:06.535Z,44.00
2019-04-06T00:05:32.481Z,44.00
2019-04-06T00:07:58.451Z,43.90
2019-04-06T00:10:44.263Z,43.90
2019-04-06T00:13:10.223Z,43.90
2019-04-06T00:15:36.262Z,43.90
2019-04-06T00:18:02.327Z,44.00
2019-04-06T00:20:28.280Z,43.90
2019-04-06T00:22:54.248Z,43.90
2019-04-06T00:25:20.210Z,44.00
2019-04-06T00:27:46.239Z,43.80
2019-04-06T00:30:12.313Z,43.80
2019-04-06T00:32:40.257Z,43.80
2019-04-06T00:35:06.344Z,43.80
2019-04-06T00:37:32.275Z,43.80
2019-04-06T00:39:58.247Z,43.80
2019-04-06T00:42:24.227Z,43.80
2019-04-06T00:44:50.656Z,43.80
2019-04-06T00:47:16.623Z,43.70
2019-04-06T00:49:42.582Z,43.70
2019-04-06T00:52:08.534Z,43.70
2019-04-06T00:54:34.907Z,43.70
2019-04-06T00:57:00.863Z,43.60
2019-04-06T00:59:26.815Z,44.20
2019-04-06T01:01:52.881Z,43.60
2019-04-06T01:04:18.846Z,43.60
2019-04-06T01:06:44.903Z,43.60
2019-04-06T01:09:10.852Z,44.20
2019-04-06T01:11:36.825Z,43.50
2019-04-06T01:14:02.887Z,43.50
2019-04-06T01:16:28.846Z,43.50
2019-04-06T01:18:54.775Z,43.50
2019-04-06T01:21:20.744Z,43.80
2019-04-06T01:23:46.775Z,43.60
2019-04-06T01:26:12.746Z,43.60
2019-04-06T01:28:38.828Z,43.50
2019-04-06T01:31:04.854Z,43.50
2019-04-06T01:33:30.795Z,43.50
2019-04-06T01:35:56.802Z,43.50
2019-04-06T01:38:22.799Z,43.50
2019-04-06T01:40:48.781Z,43.50
2019-04-06T01:43:14.782Z,43.50
2019-04-06T01:45:40.772Z,43.50
2019-04-06T01:48:06.763Z,43.40
2019-04-06T01:50:32.741Z,43.40
2019-04-06T01:52:58.826Z,43.40
2019-04-06T01:55:24.810Z,43.40
2019-04-06T01:57:50.809Z,43.50
2019-04-06T02:00:16.822Z,43.30
2019-04-06T02:02:44.668Z,43.30
2019-04-06T02:05:10.615Z,43.30
2019-04-06T02:07:36.549Z,43.30
2019-04-06T02:10:02.606Z,43.20
2019-04-06T02:12:29.080Z,43.30
2019-04-06T02:14:57.100Z,43.20
2019-04-06T02:17:23.464Z,43.30
2019-04-06T02:19:49.914Z,43.20
2019-04-06T02:22:16.440Z,43.20
2019-04-06T02:24:43.256Z,43.30
2019-04-06T02:27:09.680Z,43.20
2019-04-06T02:29:36.137Z,43.20
2019-04-06T02:32:21.089Z,43.20
2019-04-06T02:34:49.294Z,43.40
2019-04-06T02:37:17.245Z,43.30
2019-04-06T02:39:48.256Z,43.20
2019-04-06T02:42:16.103Z,43.20
2019-04-06T02:44:42.085Z,43.30
2019-04-06T02:47:08.039Z,43.10
2019-04-06T02:49:33.993Z,43.40
2019-04-06T02:51:59.950Z,43.10
2019-04-06T02:54:25.997Z,43.10
2019-04-06T02:56:51.949Z,43.20
2019-04-06T02:59:17.931Z,43.10
2019-04-06T03:01:43.964Z,43.20
2019-04-06T03:04:10.069Z,43.20
2019-04-06T03:06:36.159Z,43.20
2019-04-06T03:09:03.999Z,43.20
2019-04-06T03:11:29.968Z,43.10
2019-04-06T03:13:56.008Z,43.20
2019-04-06T03:16:21.978Z,43.20
2019-04-06T03:18:48.031Z,43.20
2019-04-06T03:21:13.960Z,43.20
2019-04-06T03:23:50.142Z,43.10
2019-04-06T03:26:07.786Z,43.20
2019-04-06T03:28:33.751Z,43.10
2019-04-06T03:30:59.844Z,43.10
2019-04-06T03:33:25.949Z,43.10
2019-04-06T03:35:52.372Z,43.20
2019-04-06T03:38:18.656Z,43.20
2019-04-06T03:40:44.589Z,43.10
2019-04-06T03:43:10.549Z,43.10
2019-04-06T03:45:36.537Z,43.10
2019-04-06T03:48:02.650Z,43.10
2019-04-06T03:50:28.874Z,43.70
2019-04-06T03:52:54.959Z,43.10
2019-04-06T03:55:20.930Z,42.60
2019-04-06T03:57:46.895Z,43.10
2019-04-06T04:00:12.855Z,43.00
2019-04-06T04:02:38.889Z,43.10
2019-04-06T04:05:04.840Z,43.10
2019-04-06T04:07:30.785Z,43.00
2019-04-06T04:09:57.052Z,43.00
2019-04-06T04:12:23.212Z,43.10
2019-04-06T04:14:51.829Z,43.10
2019-04-06T04:17:17.864Z,43.10
2019-04-06T04:19:43.819Z,43.00
2019-04-06T04:22:09.757Z,43.50
2019-04-06T04:24:36.115Z,43.00
2019-04-06T04:27:02.159Z,42.90
2019-04-06T04:29:28.119Z,43.00
2019-04-06T04:31:54.199Z,42.90
2019-04-06T04:34:20.148Z,43.00
2019-04-06T04:36:46.089Z,42.90
2019-04-06T04:39:12.050Z,42.90
2019-04-06T04:41:39.880Z,42.90
2019-04-06T04:44:05.926Z,42.90
2019-04-06T04:46:31.994Z,42.90
2019-04-06T04:48:58.035Z,42.90
2019-04-06T04:51:23.988Z,42.90
2019-04-06T04:53:49.925Z,43.10
2019-04-06T04:56:15.913Z,43.10
2019-04-06T04:58:42.162Z,43.10
2019-04-06T05:01:08.399Z,43.10
2019-04-06T05:03:34.689Z,43.10
2019-04-06T05:06:00.639Z,43.00
2019-04-06T05:08:26.599Z,43.30
2019-04-06T05:10:52.573Z,43.10
2019-04-06T05:13:18.535Z,43.10
2019-04-06T05:15:44.585Z,43.00
2019-04-06T05:18:10.651Z,43.00
2019-04-06T05:20:36.583Z,43.10
2019-04-06T05:23:02.551Z,43.10
2019-04-06T05:25:28.678Z,43.10
2019-04-06T05:27:55.109Z,43.30
2019-04-06T05:30:23.477Z,43.30
2019-04-06T05:32:49.545Z,43.00
2019-04-06T05:35:15.494Z,43.00
2019-04-06T05:37:41.437Z,43.10
2019-04-06T05:40:07.556Z,43.10
2019-04-06T05:42:33.647Z,43.10
2019-04-06T05:44:59.596Z,43.10
2019-04-06T05:47:25.673Z,43.10
2019-04-06T05:49:51.900Z,43.00
2019-04-06T05:52:17.984Z,42.90
2019-04-06T05:54:43.949Z,43.00
2019-04-06T05:57:09.890Z,42.80
2019-04-06T05:59:36.076Z,42.80
2019-04-06T06:02:02.208Z,42.60
2019-04-06T06:04:28.273Z,42.60
2019-04-06T06:06:54.271Z,42.50
2019-04-06T06:09:20.245Z,42.50
2019-04-06T06:11:46.219Z,42.50
2019-04-06T06:14:12.311Z,42.60
2019-04-06T06:16:38.351Z,42.60
2019-04-06T06:19:04.285Z,42.70
2019-04-06T06:21:30.256Z,42.90
2019-04-06T06:23:56.307Z,42.80
2019-04-06T06:26:22.488Z,42.80
2019-04-06T06:28:48.541Z,43.30
2019-04-06T06:31:14.512Z,42.90
2019-04-06T06:33:40.584Z,42.80
2019-04-06T06:36:06.650Z,42.90
2019-04-06T06:38:32.642Z,42.90
2019-04-06T06:40:58.974Z,43.10
2019-04-06T06:43:25.043Z,43.20
2019-04-06T06:45:51.169Z,43.40
2019-04-06T06:48:17.184Z,43.40
2019-04-06T06:50:43.218Z,43.30
2019-04-06T06:53:09.212Z,43.50
2019-04-06T06:55:35.174Z,43.70
2019-04-06T06:58:01.253Z,43.70
2019-04-06T07:00:27.384Z,43.70
2019-04-06T07:02:53.352Z,43.90
2019-04-06T07:05:19.470Z,44.30
2019-04-06T07:07:45.450Z,44.50
2019-04-06T07:10:11.432Z,44.70
2019-04-06T07:12:37.484Z,44.70
2019-04-06T07:15:03.450Z,45.10
2019-04-06T07:17:29.446Z,45.60
2019-04-06T07:19:55.393Z,45.50
2019-04-06T07:22:21.345Z,45.40
2019-04-06T07:24:47.307Z,45.40
2019-04-06T07:27:13.236Z,45.40
2019-04-06T07:29:39.206Z,45.50
2019-04-06T07:32:05.176Z,45.60
2019-04-06T07:34:31.399Z,45.50
2019-04-06T07:36:57.711Z,45.50
2019-04-06T07:39:23.776Z,45.50
2019-04-06T07:41:49.737Z,45.50
2019-04-06T07:44:15.678Z,45.40
2019-04-06T07:46:41.730Z,45.30
2019-04-06T07:49:09.922Z,45.40
2019-04-06T07:51:35.800Z,45.20
2019-04-06T07:54:01.834Z,45.30
2019-04-06T07:56:27.902Z,45.40
2019-04-06T07:58:53.904Z,45.60
2019-04-06T08:01:19.897Z,45.60
2019-04-06T08:03:46.049Z,45.60
2019-04-06T08:06:12.120Z,45.50
2019-04-06T08:08:38.174Z,45.50
2019-04-06T08:11:04.755Z,45.30
2019-04-06T08:13:30.797Z,45.90
2019-04-06T08:15:56.724Z,45.30
2019-04-06T08:18:22.682Z,45.20
2019-04-06T08:20:49.043Z,45.10
2019-04-06T08:23:15.151Z,45.10
2019-04-06T08:25:41.443Z,45.00
2019-04-06T08:28:07.503Z,45.00
2019-04-06T08:30:44.746Z,45.00
2019-04-06T08:33:02.020Z,45.00
2019-04-06T08:35:28.166Z,45.00
2019-04-06T08:37:54.219Z,45.00
2019-04-06T08:40:20.193Z,45.60
2019-04-06T08:42:46.344Z,44.90
2019-04-06T08:45:13.801Z,44.90
2019-04-06T08:47:40.284Z,44.80
2019-04-06T08:50:06.347Z,44.80
2019-04-06T08:52:32.296Z,44.80
2019-04-06T08:54:58.246Z,44.80
2019-04-06T08:57:24.206Z,44.80
2019-04-06T08:59:50.187Z,44.90
2019-04-06T09:02:16.397Z,44.80
2019-04-06T09:04:42.579Z,44.70
2019-04-06T09:07:08.569Z,44.60
2019-04-06T09:09:34.541Z,44.60
2019-04-06T09:12:00.516Z,44.60
2019-04-06T09:14:26.477Z,44.60
2019-04-06T09:16:52.477Z,44.60
2019-04-06T09:19:18.459Z,44.50
2019-04-06T09:21:44.495Z,44.50
2019-04-06T09:24:10.467Z,44.50
2019-04-06T09:26:36.415Z,44.40
2019-04-06T09:29:02.366Z,44.40
2019-04-06T09:31:28.425Z,44.40
2019-04-06T09:33:54.385Z,44.40
2019-04-06T09:36:20.549Z,44.30
2019-04-06T09:38:46.691Z,44.30
2019-04-06T09:41:12.766Z,44.30
2019-04-06T09:43:38.787Z,44.30
2019-04-06T09:46:25.213Z,44.20
2019-04-06T09:48:59.229Z,44.30
2019-04-06T09:51:39.579Z,44.30
2019-04-06T09:54:07.703Z,44.30
2019-04-06T09:56:35.844Z,44.20
2019-04-06T09:59:03.876Z,44.10
2019-04-06T10:01:43.918Z,44.10
2019-04-06T10:04:27.542Z,44.00
2019-04-06T10:06:55.533Z,44.20
2019-04-06T10:09:40.476Z,44.00
2019-04-06T10:12:14.761Z,44.00
2019-04-06T10:15:01.452Z,44.00
2019-04-06T10:17:46.165Z,44.20
2019-04-06T10:20:32.154Z,44.10
2019-04-06T10:23:00.001Z,44.10
2019-04-06T10:25:34.386Z,44.00
2019-04-06T10:28:14.657Z,44.00
2019-04-06T10:30:54.689Z,44.00
2019-04-06T10:33:28.351Z,43.80
2019-04-06T10:36:05.375Z,43.80
2019-04-06T10:38:36.281Z,43.80
2019-04-06T10:41:04.189Z,43.80
2019-04-06T10:43:47.521Z,43.80
2019-04-06T10:46:15.357Z,43.90
2019-04-06T10:48:46.106Z,43.70
2019-04-06T10:51:14.122Z,43.70
2019-04-06T10:53:48.165Z,43.70
2019-04-06T10:56:16.122Z,43.70
2019-04-06T10:58:53.364Z,43.70
2019-04-06T11:01:21.604Z,43.60
2019-04-06T11:03:49.600Z,43.50
2019-04-06T11:06:32.677Z,43.60
2019-04-06T11:09:03.445Z,43.50
2019-04-06T11:11:37.313Z,43.50
2019-04-06T11:14:22.127Z,43.40
2019-04-06T11:16:55.869Z,43.40
2019-04-06T11:19:29.555Z,43.30
2019-04-06T11:22:00.380Z,43.30
2019-04-06T11:24:46.765Z,43.20
2019-04-06T11:27:31.420Z,43.20
2019-04-06T11:30:13.658Z,43.20
2019-04-06T11:32:47.122Z,43.00
2019-04-06T11:35:15.002Z,43.00
2019-04-06T11:37:59.508Z,43.00
2019-04-06T11:40:31.474Z,43.00
2019-04-06T11:43:11.549Z,43.00
2019-04-06T11:45:56.596Z,42.90
2019-04-06T11:48:24.467Z,43.10
2019-04-06T11:50:53.259Z,42.90
2019-04-06T11:53:21.131Z,43.30
2019-04-06T11:56:01.333Z,44.00
2019-04-06T11:58:47.616Z,44.10
2019-04-06T12:01:27.562Z,44.40
2019-04-06T12:04:12.288Z,44.80
2019-04-06T12:06:46.024Z,45.20
2019-04-06T12:09:29.052Z,45.30
2019-04-06T12:12:09.613Z,45.70
2019-04-06T12:14:49.740Z,45.90
2019-04-06T12:17:26.920Z,45.90
2019-04-06T12:20:11.703Z,45.60
2019-04-06T12:22:45.611Z,45.70
2019-04-06T12:25:13.569Z,46.00
2019-04-06T12:27:44.468Z,45.80
2019-04-06T12:30:12.338Z,46.20
2019-04-06T12:32:46.092Z,46.00
2019-04-06T12:35:14.165Z,46.00
2019-04-06T12:37:45.486Z,46.40
2019-04-06T12:40:19.802Z,46.40
2019-04-06T12:42:50.694Z,46.40
2019-04-06T12:45:30.923Z,46.30
2019-04-06T12:48:14.229Z,46.20
2019-04-06T12:50:56.166Z,46.70
2019-04-06T12:53:36.250Z,46.20
2019-04-06T12:56:10.482Z,46.30
2019-04-06T12:58:41.246Z,46.00
2019-04-06T13:01:12.164Z,45.90
2019-04-06T13:03:57.110Z,46.50
2019-04-06T13:06:30.933Z,45.90
2019-04-06T13:08:58.840Z,45.80
2019-04-06T13:11:27.001Z,45.90
2019-04-06T13:13:58.544Z,45.80
2019-04-06T13:16:35.861Z,45.90
2019-04-06T13:19:20.498Z,45.70
2019-04-06T13:21:54.239Z,45.50
2019-04-06T13:24:22.185Z,45.40
2019-04-06T13:26:56.248Z,45.20
2019-04-06T13:29:27.839Z,45.10
2019-04-06T13:32:05.757Z,45.00
2019-04-06T13:34:33.650Z,44.90
2019-04-06T13:37:01.507Z,44.90
2019-04-06T13:39:46.307Z,44.90
2019-04-06T13:42:26.195Z,44.80
2019-04-06T13:45:00.206Z,44.80
2019-04-06T13:47:31.301Z,44.60
2019-04-06T13:49:59.391Z,44.90
2019-04-06T13:52:27.581Z,44.60
2019-04-06T13:54:55.647Z,44.60
2019-04-06T13:57:23.505Z,44.60
2019-04-06T13:59:54.256Z,44.60
2019-04-06T14:02:34.864Z,44.60
2019-04-06T14:05:02.884Z,44.60
2019-04-06T14:07:30.777Z,44.50
2019-04-06T14:10:04.697Z,44.40
2019-04-06T14:12:35.483Z,44.40
2019-04-06T14:15:03.358Z,44.40
2019-04-06T14:17:31.475Z,44.30
2019-04-06T14:20:08.579Z,44.30
2019-04-06T14:22:49.457Z,44.30
2019-04-06T14:25:29.730Z,44.30
2019-04-06T14:27:57.790Z,44.20
2019-04-06T14:30:25.777Z,44.30
2019-04-06T14:32:54.049Z,44.20
2019-04-06T14:35:37.477Z,44.30
2019-04-06T14:38:22.273Z,44.20
2019-04-06T14:40:57.947Z,44.10
2019-04-06T14:43:35.562Z,44.10
2019-04-06T14:46:06.598Z,44.10
2019-04-06T14:48:51.168Z,44.10
2019-04-06T14:51:19.443Z,44.10
2019-04-06T14:53:50.217Z,44.10
2019-04-06T14:56:24.456Z,44.20
2019-04-06T14:58:58.481Z,44.00
2019-04-06T15:01:40.240Z,44.00
2019-04-06T15:03:56.112Z,43.90
2019-04-06T15:06:24.072Z,43.90
2019-04-06T15:09:01.048Z,43.90
2019-04-06T15:11:35.157Z,43.80
2019-04-06T15:14:19.905Z,43.70
2019-04-06T15:16:48.185Z,43.70
2019-04-06T15:19:22.340Z,43.60
2019-04-06T15:21:59.469Z,43.70
2019-04-06T15:24:36.364Z,43.60
2019-04-06T15:27:13.425Z,43.90
2019-04-06T15:29:58.492Z,43.70
2019-04-06T15:32:35.780Z,43.60
2019-04-06T15:35:15.734Z,43.60
2019-04-06T15:37:46.399Z,43.60
2019-04-06T15:40:14.308Z,43.50
2019-04-06T15:42:48.316Z,43.50
2019-04-06T15:45:22.344Z,43.60
2019-04-06T15:48:07.454Z,44.20
2019-04-06T15:50:35.442Z,43.70
2019-04-06T15:53:18.774Z,43.60
2019-04-06T15:55:49.933Z,43.60
2019-04-06T15:58:20.952Z,43.50
2019-04-06T16:00:56.506Z,43.50
2019-04-06T16:03:41.390Z,43.60
2019-04-06T16:06:18.636Z,43.40
2019-04-06T16:09:02.511Z,43.40
2019-04-06T16:11:30.761Z,43.10
2019-04-06T16:14:14.153Z,43.40
2019-04-06T16:16:48.092Z,43.80
2019-04-06T16:19:16.054Z,44.20
2019-04-06T16:22:04.676Z,44.10
2019-04-06T16:24:49.637Z,44.20
2019-04-06T16:27:17.532Z,44.20
2019-04-06T16:29:45.766Z,44.20
2019-04-06T16:32:31.493Z,44.20
2019-04-06T16:34:52.806Z,44.20
2019-04-06T16:37:20.779Z,44.10
2019-04-06T16:40:04.132Z,44.10
2019-04-06T16:42:48.760Z,44.20
2019-04-06T16:45:25.618Z,44.10
2019-04-06T16:47:59.422Z,44.20
2019-04-06T16:50:40.037Z,44.10
2019-04-06T16:53:24.766Z,44.00
2019-04-06T16:55:58.590Z,44.00
2019-04-06T16:58:35.533Z,44.10
2019-04-06T17:01:06.524Z,44.10
2019-04-06T17:03:51.562Z,44.10
2019-04-06T17:06:36.218Z,44.20
2019-04-06T17:09:07.213Z,44.20
2019-04-06T17:11:38.293Z,44.20
2019-04-06T17:14:21.550Z,44.20
2019-04-06T17:17:08.188Z,44.10
2019-04-06T17:19:53.271Z,44.10
2019-04-06T17:22:21.340Z,44.10
2019-04-06T17:24:49.208Z,44.10
2019-04-06T17:27:17.105Z,44.10
2019-04-06T17:29:48.237Z,44.80
2019-04-06T17:32:16.567Z,44.10
2019-04-06T17:34:54.913Z,44.10
2019-04-06T17:37:29.944Z,44.20
2019-04-06T17:39:58.231Z,44.10
2019-04-06T17:42:32.493Z,44.00
2019-04-06T17:45:16.009Z,44.00
2019-04-06T17:47:56.420Z,43.90
2019-04-06T17:50:45.866Z,43.90
2019-04-06T17:53:16.860Z,43.90
2019-04-06T17:56:03.415Z,43.90
2019-04-06T17:58:40.856Z,43.90
2019-04-06T18:01:26.444Z,43.80
2019-04-06T18:04:00.604Z,43.90
2019-04-06T18:06:37.589Z,43.80
2019-04-06T18:09:21.990Z,43.80
2019-04-06T18:11:53.112Z,43.80
2019-04-06T18:14:19.054Z,43.90
2019-04-06T18:16:45.014Z,43.90
2019-04-06T18:19:11.320Z,44.60
2019-04-06T18:21:37.418Z,43.90
2019-04-06T18:24:03.649Z,44.10
2019-04-06T18:26:29.714Z,44.10
2019-04-06T18:28:55.682Z,44.30
2019-04-06T18:31:40.447Z,44.20
2019-04-06T18:34:07.027Z,44.20
2019-04-06T18:36:51.678Z,44.20
2019-04-06T18:39:19.538Z,44.30
2019-04-06T18:41:45.582Z,44.20
2019-04-06T18:44:11.845Z,44.20
2019-04-06T18:46:38.172Z,44.30
2019-04-06T18:49:04.265Z,44.30
2019-04-06T18:51:30.302Z,44.60
2019-04-06T18:53:56.279Z,44.40
2019-04-06T18:56:22.389Z,44.40
2019-04-06T18:58:48.374Z,44.70
2019-04-06T19:01:15.583Z,45.30
2019-04-06T19:03:41.717Z,45.10
2019-04-06T19:06:07.787Z,45.10
2019-04-06T19:08:34.294Z,45.10
2019-04-06T19:11:00.424Z,45.20
2019-04-06T19:13:26.502Z,45.20
2019-04-06T19:15:52.568Z,45.20
2019-04-06T19:18:19.108Z,46.00
2019-04-06T19:20:47.316Z,45.30
2019-04-06T19:23:13.726Z,45.40
2019-04-06T19:25:39.822Z,45.30
2019-04-06T19:28:05.895Z,45.30
2019-04-06T19:30:31.886Z,45.40
2019-04-06T19:32:57.963Z,45.30
2019-04-06T19:35:24.592Z,45.40
2019-04-06T19:37:50.704Z,45.50
2019-04-06T19:40:16.679Z,46.10
2019-04-06T19:42:42.733Z,45.50
2019-04-06T19:45:09.155Z,45.60
2019-04-06T19:47:35.813Z,45.50
2019-04-06T19:50:01.957Z,45.50
2019-04-06T19:52:28.372Z,45.50
2019-04-06T19:54:54.507Z,45.50
2019-04-06T19:57:20.629Z,45.60
2019-04-06T19:59:46.963Z,45.50
2019-04-06T20:02:13.106Z,45.50
2019-04-06T20:04:40.142Z,45.50
2019-04-06T20:07:06.512Z,45.60
2019-04-06T20:09:32.518Z,45.50
2019-04-06T20:12:06.110Z,45.50
2019-04-06T20:14:26.353Z,45.40
2019-04-06T20:16:52.794Z,45.40
2019-04-06T20:19:18.959Z,45.40
2019-04-06T20:21:45.328Z,45.50
2019-04-06T20:24:11.791Z,45.60
2019-04-06T20:26:38.332Z,45.50
2019-04-06T20:29:04.732Z,45.40
2019-04-06T20:31:30.855Z,45.50
2019-04-06T20:33:56.836Z,45.30
2019-04-06T20:36:22.796Z,45.30
2019-04-06T20:38:48.848Z,45.50
2019-04-06T20:41:15.280Z,45.50
2019-04-06T20:43:41.273Z,45.30
2019-04-06T20:46:07.230Z,45.20
2019-04-06T20:48:33.691Z,45.20
2019-04-06T20:50:59.960Z,45.00
2019-04-06T20:53:26.056Z,45.00
2019-04-06T20:55:52.020Z,44.90
2019-04-06T20:58:18.307Z,44.80
2019-04-06T21:00:44.452Z,44.70
2019-04-06T21:03:10.837Z,45.20
2019-04-06T21:05:36.892Z,44.70
2019-04-06T21:08:02.858Z,44.80
2019-04-06T21:10:29.245Z,44.70
2019-04-06T21:12:55.881Z,44.70
2019-04-06T21:15:21.848Z,44.70
2019-04-06T21:17:48.192Z,44.80
2019-04-06T21:20:14.248Z,44.90
2019-04-06T21:22:40.789Z,44.90
2019-04-06T21:25:07.167Z,45.00
2019-04-06T21:27:33.324Z,45.20
2019-04-06T21:29:59.615Z,45.40
2019-04-06T21:32:26.104Z,46.10
2019-04-06T21:34:52.236Z,45.50
2019-04-06T21:37:18.908Z,45.50
2019-04-06T21:39:45.006Z,45.40
2019-04-06T21:42:11.010Z,45.50
2019-04-06T21:44:37.476Z,45.50
2019-04-06T21:47:03.612Z,45.50
2019-04-06T21:49:29.550Z,45.50
2019-04-06T21:51:55.505Z,45.40
2019-04-06T21:54:21.472Z,45.40
2019-04-06T21:56:47.853Z,45.40
2019-04-06T21:59:15.382Z,45.40
2019-04-06T22:01:42.227Z,45.40
2019-04-06T22:04:08.316Z,45.40
2019-04-06T22:06:34.866Z,45.40
2019-04-06T22:09:01.500Z,45.50
2019-04-06T22:11:27.730Z,45.40
2019-04-06T22:13:53.925Z,45.40
2019-04-06T22:16:20.068Z,45.40
2019-04-06T22:18:46.113Z,45.30
2019-04-06T22:21:12.511Z,45.20
2019-04-06T22:23:42.309Z,45.10
2019-04-06T22:26:07.120Z,45.00
2019-04-06T22:28:33.283Z,45.10
2019-04-06T22:30:59.693Z,45.00
2019-04-06T22:33:25.644Z,44.90
2019-04-06T22:35:51.830Z,44.80
2019-04-06T22:38:17.967Z,44.80
2019-04-06T22:40:44.079Z,44.70
2019-04-06T22:43:10.018Z,44.60
2019-04-06T22:45:35.996Z,44.70
2019-04-06T22:48:02.354Z,44.70
2019-04-06T22:50:28.489Z,44.70
2019-04-06T22:52:54.441Z,44.90
2019-04-06T22:55:20.871Z,44.70
2019-04-06T22:57:47.725Z,44.70
2019-04-06T23:00:16.977Z,44.70
2019-04-06T23:02:45.443Z,44.60
2019-04-06T23:05:19.962Z,44.60
2019-04-06T23:07:45.995Z,44.60
2019-04-06T23:10:12.034Z,45.30
2019-04-06T23:12:38.240Z,44.60
2019-04-06T23:15:04.916Z,44.60
2019-04-06T23:17:31.073Z,44.50
2019-04-06T23:19:57.005Z,44.50
2019-04-06T23:22:22.941Z,44.50
2019-04-06T23:24:48.902Z,44.60
2019-04-06T23:27:14.855Z,44.70
2019-04-06T23:29:41.861Z,44.60
2019-04-06T23:32:08.038Z,44.70
2019-04-06T23:34:34.143Z,44.70
2019-04-06T23:37:00.674Z,44.80
2019-04-06T23:39:26.975Z,44.80
2019-04-06T23:41:53.083Z,44.80
2019-04-06T23:44:19.047Z,44.80
2019-04-06T23:46:45.072Z,44.80
2019-04-06T23:49:11.195Z,44.70
2019-04-06T23:51:37.241Z,44.70
2019-04-06T23:54:03.311Z,44.70
2019-04-06T23:56:29.938Z,44.60
2019-04-06T23:58:56.114Z,44.60
